• Join FlightAware (Why Join?)
  • Login
  • US Flag 
05:29PM EDT


 

Airport Tracker/Info


-or-


 

Live Flight TrackerFlight Track Log ✈ LBQ611 ✈ 19-Apr-2012 ✈ KCRP - KMFE

Flight Track Log - Related Links

Times and Time Zones

All times are in EDT time to prevent confusion due to time zone crossing. See the LBQ611 flight status page for this flight to view local times or setup timezone preferences in your user account.

Time Position Orientation Groundspeed Altitude Reporting Facility
EDT Latitude Longitude Course Direction KTS MPH feet Rate Location/Type
10:28PM 27.7600 -97.4994 171° South 133 153 600  Level Houston Center
10:30PM 27.6897 -97.4864 201° Southwest 201 231 3,800 1,860 Climbing Houston Center
10:31PM 27.6322 -97.5114 203° Southwest 245 282 5,000 1,200 Climbing Houston Center
10:32PM 27.5578 -97.5472 204° Southwest 282 325 6,300 1,380 Climbing Houston Center
10:33PM 27.4872 -97.5831 206° Southwest 284 327 7,900 1,620 Climbing Houston Center
10:34PM 27.4125 -97.6236 204° Southwest 284 327 9,600 1,560 Climbing Houston Center
10:35PM 27.3292 -97.6658 203° Southwest 290 334 11,300 1,500 Climbing Houston Center
10:36PM 27.2547 -97.7014 204° Southwest 292 336 12,800 1,320 Climbing Houston Center
10:37PM 27.1778 -97.7392 204° Southwest 293 337 14,000 540 Climbing Houston Center
10:38PM 27.0883 -97.7833 206° Southwest 316 364 14,000  Level Houston Center
10:39PM 27.0156 -97.8236 205° Southwest 320 368 14,000  Level Houston Center
10:40PM 26.9300 -97.8678 202° Southwest 323 372 14,000  Level Houston Center
10:41PM 26.8514 -97.9028 206° Southwest 324 373 14,000  Level Houston Center
10:42PM 26.7614 -97.9514 213° Southwest 327 376 14,000  Level Houston Center
10:43PM 26.6925 -98.0008 213° Southwest 328 377 14,000  Level Houston Center
10:44PM 26.6147 -98.0569 211° Southwest 325 374 14,000 -840 Level Houston Center
10:45PM 26.5392 -98.1081 213° Southwest 321 369 12,400 -2,100 Descending Houston Center
10:46PM 26.4658 -98.1619 212° Southwest 311 358 9,800 -2,640 Descending Houston Center
10:47PM 26.3967 -98.2111 212° Southwest 286 329 7,100 -2,760 Descending Houston Center
10:48PM 26.3319 -98.2561 213° Southwest 272 313 4,300 -2,580 Descending Houston Center
10:49PM 26.2758 -98.2967 170° South 244 281 2,000 -1,440 Descending Houston Center
10:50PM 26.2242 -98.2869 170° South 161 185 1,300 -660 Descending Houston Center